Time;durP1;ratioP1;P1;durP2;ratioP2;P2;SDS_P1;SDS_P2;PMS_P1;PMS_P2;Temp;Humidity;BMP_temperature;BMP_pressure;BME280_temperature;BME280_humidity;BME280_pressure;Samples;Min_cycle;Max_cycle;Signal;HPM_P1;HPM_P2
2022/04/29 00:01:17;;;;;;;;;;;7.30;99.90;;;;;;4988478;28;19921;-63
2022/04/29 00:03:42;;;;;;;;;;;7.20;99.90;;;;;;4987728;28;19936;-63
2022/04/29 00:06:08;;;;;;;;;;;7.10;99.90;;;;;;4988261;28;20012;-63
2022/04/29 00:08:33;;;;;;;;;;;7.10;99.90;;;;;;4985550;28;19910;-63
2022/04/29 00:10:59;;;;;;;;;;;7.00;99.90;;;;;;4986120;28;19914;-63
2022/04/29 00:13:25;;;;;;;;;;;7.00;99.90;;;;;;4986578;28;20370;-63
2022/04/29 00:15:50;;;;;;;;;;;6.90;99.90;;;;;;4988290;28;19920;-63
2022/04/29 00:18:16;;;;;;;;;;;6.80;99.90;;;;;;4988059;28;19964;-63
2022/04/29 00:20:41;;;;;;;;;;;6.80;99.90;;;;;;4985796;28;19910;-63
2022/04/29 00:23:07;;;;;;;;;;;6.80;99.90;;;;;;4986929;28;19953;-63
2022/04/29 00:25:33;;;;;;;;;;;6.80;99.90;;;;;;4983080;28;19910;-63
2022/04/29 00:27:59;;;;;;;;;;;6.80;99.90;;;;;;4977751;28;19960;-62
2022/04/29 00:30:24;;;;;;;;;;;6.90;99.90;;;;;;4990535;28;19906;-62
2022/04/29 00:32:50;;;;;;;;;;;7.00;99.90;;;;;;4993994;28;20005;-62
2022/04/29 00:35:15;;;;;;;;;;;6.90;99.90;;;;;;4988366;28;19910;-62
2022/04/29 00:37:43;;;;;;;;;;;6.90;99.90;;;;;;4986914;28;19928;-62
2022/04/29 00:40:11;;;;;;;;;;;6.90;99.90;;;;;;5001235;28;19916;-62
2022/04/29 00:42:37;;;;;;;;;;;7.00;99.90;;;;;;4985545;28;19972;-62
2022/04/29 00:45:02;;;;;;;;;;;7.00;99.90;;;;;;4988126;28;19961;-62
2022/04/29 00:47:28;;;;;;;;;;;7.00;99.90;;;;;;4987059;28;19920;-61
2022/04/29 00:49:54;;;;;;;;;;;7.10;99.90;;;;;;4987439;28;19913;-61
2022/04/29 00:52:19;;;;;;;;;;;6.90;99.90;;;;;;4985139;28;19914;-61
2022/04/29 00:54:50;;;;;;;;;;;6.90;99.90;;;;;;4988194;28;19984;-61
2022/04/29 00:57:20;;;;;;;;;;;6.80;99.90;;;;;;4985762;28;19913;-61
2022/04/29 01:00:01;;;;;;;;;;;6.80;99.90;;;;;;4984158;28;19932;-61
2022/04/29 01:02:27;;;;;;;;;;;6.80;99.90;;;;;;4987197;28;19925;-61
2022/04/29 01:04:56;;;;;;;;;;;6.80;99.90;;;;;;4987857;28;19965;-61
2022/04/29 01:07:22;;;;;;;;;;;6.80;99.90;;;;;;4983674;28;20000;-61
2022/04/29 01:09:47;;;;;;;;;;;6.60;99.90;;;;;;4982784;28;20202;-61
2022/04/29 01:12:14;;;;;;;;;;;6.40;99.90;;;;;;4985363;28;19909;-61
2022/04/29 01:14:40;;;;;;;;;;;6.30;99.90;;;;;;4984591;28;20412;-61
2022/04/29 01:17:06;;;;;;;;;;;6.10;99.90;;;;;;4984574;28;19972;-62
2022/04/29 01:19:31;;;;;;;;;;;6.10;99.90;;;;;;5017321;28;19925;-62
2022/04/29 01:22:00;;;;;;;;;;;6.00;99.90;;;;;;4985206;28;20293;-62
2022/04/29 01:24:25;;;;;;;;;;;6.10;99.90;;;;;;4979400;28;19953;-62
2022/04/29 01:26:51;;;;;;;;;;;6.00;99.90;;;;;;4985248;28;20395;-62
2022/04/29 01:29:18;;;;;;;;;;;5.90;99.90;;;;;;4981366;28;19924;-62
2022/04/29 01:31:44;;;;;;;;;;;5.90;99.90;;;;;;4984600;28;20444;-62
2022/04/29 01:34:10;;;;;;;;;;;5.80;99.90;;;;;;4985056;28;20412;-62
2022/04/29 01:36:35;;;;;;;;;;;5.80;99.90;;;;;;4985213;28;20714;-62
2022/04/29 01:39:00;;;;;;;;;;;5.80;99.90;;;;;;4979021;28;20377;-62
2022/04/29 01:41:26;;;;;;;;;;;5.80;99.90;;;;;;4985909;28;19920;-61
2022/04/29 01:43:51;;;;;;;;;;;5.70;99.90;;;;;;4985526;28;19914;-61
2022/04/29 01:46:17;;;;;;;;;;;5.70;99.90;;;;;;4981875;28;19914;-61
2022/04/29 01:48:43;;;;;;;;;;;5.60;99.90;;;;;;4985912;28;19913;-61
2022/04/29 01:51:08;;;;;;;;;;;5.60;99.90;;;;;;4989414;28;19938;-61
2022/04/29 01:53:34;;;;;;;;;;;5.60;99.90;;;;;;4988087;28;20365;-61
2022/04/29 01:55:59;;;;;;;;;;;5.50;99.90;;;;;;4983908;28;19914;-61
2022/04/29 01:58:24;;;;;;;;;;;5.50;99.90;;;;;;4982007;28;19995;-61
2022/04/29 02:00:50;;;;;;;;;;;5.40;99.90;;;;;;4982037;28;19914;-61
2022/04/29 02:03:16;;;;;;;;;;;5.40;99.90;;;;;;4986483;28;19913;-61
2022/04/29 02:05:42;;;;;;;;;;;5.40;99.90;;;;;;4992126;28;20294;-61
2022/04/29 02:08:07;;;;;;;;;;;5.30;99.90;;;;;;4984837;28;19924;-61
2022/04/29 02:10:33;;;;;;;;;;;5.40;99.90;;;;;;4984688;28;19964;-61
2022/04/29 02:12:58;;;;;;;;;;;5.60;99.90;;;;;;4985687;28;19913;-61
2022/04/29 02:15:24;;;;;;;;;;;5.40;99.90;;;;;;4985780;28;19920;-61
2022/04/29 02:17:49;;;;;;;;;;;5.40;99.90;;;;;;4984865;28;19963;-61
2022/04/29 02:20:15;;;;;;;;;;;5.30;99.90;;;;;;4984923;28;20233;-61
2022/04/29 02:22:40;;;;;;;;;;;5.30;99.90;;;;;;4982985;28;19916;-61
2022/04/29 02:25:06;;;;;;;;;;;5.30;99.90;;;;;;4986109;28;19914;-61
2022/04/29 02:27:32;;;;;;;;;;;5.30;99.90;;;;;;4985058;28;19910;-61
2022/04/29 02:29:57;;;;;;;;;;;5.30;99.90;;;;;;4984310;28;20302;-61
2022/04/29 02:32:23;;;;;;;;;;;5.20;99.90;;;;;;4989045;28;19945;-61
2022/04/29 02:34:48;;;;;;;;;;;5.10;99.90;;;;;;4982238;28;20280;-61
2022/04/29 02:37:14;;;;;;;;;;;5.20;99.90;;;;;;4986489;28;19910;-61
2022/04/29 02:39:40;;;;;;;;;;;5.30;99.90;;;;;;4985792;28;19921;-61
2022/04/29 02:42:07;;;;;;;;;;;5.40;99.90;;;;;;4986992;28;20392;-61
2022/04/29 02:44:33;;;;;;;;;;;5.30;99.90;;;;;;4983264;28;19917;-61
2022/04/29 02:47:07;;;;;;;;;;;5.20;99.90;;;;;;4985912;28;19909;-61
2022/04/29 02:49:33;;;;;;;;;;;5.20;99.90;;;;;;4977554;28;19999;-61
2022/04/29 02:51:58;;;;;;;;;;;5.10;99.90;;;;;;5017310;28;19910;-61
2022/04/29 02:54:24;;;;;;;;;;;5.20;99.90;;;;;;5016349;28;19921;-61
2022/04/29 02:56:50;;;;;;;;;;;5.20;99.90;;;;;;5016865;28;20038;-61
2022/04/29 02:59:19;;;;;;;;;;;5.10;99.90;;;;;;4982706;28;19920;-61
2022/04/29 03:01:45;;;;;;;;;;;5.10;99.90;;;;;;4982812;28;20089;-61
2022/04/29 03:04:10;;;;;;;;;;;5.10;99.90;;;;;;4985343;28;20012;-61
2022/04/29 03:06:36;;;;;;;;;;;5.10;99.90;;;;;;4982283;28;20295;-61
2022/04/29 03:09:01;;;;;;;;;;;5.30;99.90;;;;;;4985760;28;20380;-61
2022/04/29 03:11:27;;;;;;;;;;;5.50;99.90;;;;;;5017022;28;19918;-61
2022/04/29 03:13:53;;;;;;;;;;;5.50;99.90;;;;;;4985525;28;20318;-61
2022/04/29 03:16:18;;;;;;;;;;;5.40;99.90;;;;;;4984691;28;20404;-61
2022/04/29 03:18:44;;;;;;;;;;;5.40;99.90;;;;;;5016774;28;19909;-61
2022/04/29 03:21:10;;;;;;;;;;;5.40;99.90;;;;;;4983342;28;19920;-61
2022/04/29 03:23:36;;;;;;;;;;;5.30;99.90;;;;;;4985272;28;20601;-61
2022/04/29 03:26:03;;;;;;;;;;;5.30;99.90;;;;;;4984570;28;19961;-61
2022/04/29 03:28:29;;;;;;;;;;;5.30;99.90;;;;;;4983161;28;19921;-61
2022/04/29 03:30:54;;;;;;;;;;;5.30;99.90;;;;;;4980426;28;19922;-61
2022/04/29 03:33:20;;;;;;;;;;;5.20;99.90;;;;;;4985658;28;19960;-61
2022/04/29 03:35:47;;;;;;;;;;;5.10;99.90;;;;;;4983531;28;19988;-61
2022/04/29 03:38:12;;;;;;;;;;;5.10;99.90;;;;;;4979786;28;19914;-61
2022/04/29 03:40:38;;;;;;;;;;;5.20;99.90;;;;;;4983278;28;19917;-61
2022/04/29 03:43:04;;;;;;;;;;;5.10;99.90;;;;;;4986047;28;19914;-61
2022/04/29 03:45:29;;;;;;;;;;;5.10;99.90;;;;;;4983863;28;20008;-61
2022/04/29 03:47:55;;;;;;;;;;;5.10;99.90;;;;;;4985502;28;19920;-61
2022/04/29 03:50:25;;;;;;;;;;;5.00;99.90;;;;;;4982624;28;19910;-61
2022/04/29 03:52:52;;;;;;;;;;;5.00;99.90;;;;;;4984921;28;19925;-61
2022/04/29 03:55:18;;;;;;;;;;;5.00;99.90;;;;;;4980401;28;20282;-61
2022/04/29 03:57:43;;;;;;;;;;;5.00;99.90;;;;;;4973965;28;20286;-61
2022/04/29 04:00:10;;;;;;;;;;;4.90;99.90;;;;;;4979928;28;19914;-61
2022/04/29 04:02:35;;;;;;;;;;;4.90;99.90;;;;;;4988473;28;19964;-61
2022/04/29 04:05:01;;;;;;;;;;;4.90;99.90;;;;;;4985276;28;19914;-61
2022/04/29 04:07:26;;;;;;;;;;;4.90;99.90;;;;;;4985302;28;19956;-61
2022/04/29 04:09:52;;;;;;;;;;;5.00;99.90;;;;;;4998976;28;20347;-61
2022/04/29 04:12:17;;;;;;;;;;;4.90;99.90;;;;;;4988919;28;19949;-61
2022/04/29 04:14:43;;;;;;;;;;;4.80;99.90;;;;;;4986284;28;19914;-61
2022/04/29 04:17:08;;;;;;;;;;;4.80;99.90;;;;;;4988359;28;19917;-61
2022/04/29 04:19:35;;;;;;;;;;;4.90;99.90;;;;;;4989071;28;19910;-61
2022/04/29 04:22:01;;;;;;;;;;;4.80;99.90;;;;;;4982758;28;19920;-61
2022/04/29 04:24:26;;;;;;;;;;;4.80;99.90;;;;;;4984766;28;20377;-61
2022/04/29 04:26:52;;;;;;;;;;;4.70;99.90;;;;;;4988205;28;19909;-61
2022/04/29 04:29:17;;;;;;;;;;;4.80;99.90;;;;;;4985161;28;19917;-61
2022/04/29 04:31:43;;;;;;;;;;;4.80;99.90;;;;;;4985577;28;19925;-61
2022/04/29 04:36:53;;;;;;;;;;;4.90;99.90;;;;;;4988881;28;20028;-61
2022/04/29 04:39:18;;;;;;;;;;;5.00;99.90;;;;;;4983740;28;20000;-61
2022/04/29 04:41:44;;;;;;;;;;;4.90;99.90;;;;;;4991036;28;19914;-61
2022/04/29 04:44:09;;;;;;;;;;;4.90;99.90;;;;;;4986575;28;20288;-61
2022/04/29 04:46:36;;;;;;;;;;;5.10;99.90;;;;;;4986141;28;19988;-61
2022/04/29 04:49:01;;;;;;;;;;;5.10;99.90;;;;;;4986024;28;20493;-61
2022/04/29 04:51:27;;;;;;;;;;;5.20;99.90;;;;;;4985280;28;20002;-61
2022/04/29 04:53:52;;;;;;;;;;;5.20;99.90;;;;;;4985213;28;20418;-62
2022/04/29 04:56:18;;;;;;;;;;;5.40;99.90;;;;;;4982384;28;19925;-62
2022/04/29 04:58:43;;;;;;;;;;;5.40;99.90;;;;;;4982360;28;20361;-62
2022/04/29 05:01:09;;;;;;;;;;;5.50;99.90;;;;;;4985351;28;19922;-62
2022/04/29 05:03:34;;;;;;;;;;;5.60;99.90;;;;;;4985122;28;19920;-62
2022/04/29 05:06:00;;;;;;;;;;;5.70;99.90;;;;;;4985956;28;20004;-62
2022/04/29 05:08:25;;;;;;;;;;;5.60;99.90;;;;;;4984994;28;20328;-62
2022/04/29 05:10:51;;;;;;;;;;;5.80;99.90;;;;;;4983180;28;19921;-62
2022/04/29 05:13:16;;;;;;;;;;;5.80;99.90;;;;;;4984729;28;19922;-62
2022/04/29 05:15:42;;;;;;;;;;;6.00;99.90;;;;;;4987468;28;19923;-62
2022/04/29 05:18:08;;;;;;;;;;;6.10;99.90;;;;;;4986092;28;19968;-62
2022/04/29 05:20:34;;;;;;;;;;;6.10;99.90;;;;;;4984777;28;20302;-62
2022/04/29 05:23:00;;;;;;;;;;;6.30;99.90;;;;;;4982903;28;19929;-62
2022/04/29 05:25:25;;;;;;;;;;;6.50;99.90;;;;;;4984526;28;19961;-62
2022/04/29 05:27:51;;;;;;;;;;;6.50;99.90;;;;;;4989663;28;19920;-62
2022/04/29 05:30:16;;;;;;;;;;;6.50;99.90;;;;;;4983164;28;19960;-62
2022/04/29 05:32:42;;;;;;;;;;;6.80;99.90;;;;;;4983797;28;19925;-62
2022/04/29 05:35:09;;;;;;;;;;;6.80;99.90;;;;;;4983611;28;19917;-62
2022/04/29 05:37:35;;;;;;;;;;;6.70;99.90;;;;;;4984409;28;20008;-62
2022/04/29 05:42:44;;;;;;;;;;;6.70;99.90;;;;;;4981064;28;19960;-62
2022/04/29 05:45:10;;;;;;;;;;;6.90;99.90;;;;;;4983012;28;19921;-62
2022/04/29 05:47:35;;;;;;;;;;;6.80;99.90;;;;;;4985641;28;19921;-62
2022/04/29 05:50:01;;;;;;;;;;;7.00;99.90;;;;;;4984253;28;20294;-62
2022/04/29 05:52:26;;;;;;;;;;;6.90;99.90;;;;;;4986865;28;19910;-61
2022/04/29 05:54:52;;;;;;;;;;;6.90;99.90;;;;;;4987332;28;19933;-61
2022/04/29 05:57:17;;;;;;;;;;;7.00;99.90;;;;;;4986308;28;19924;-61
2022/04/29 05:59:43;;;;;;;;;;;7.30;99.90;;;;;;4988070;28;19917;-61
2022/04/29 06:02:08;;;;;;;;;;;7.10;99.90;;;;;;4983611;28;20424;-61
2022/04/29 06:04:34;;;;;;;;;;;7.30;99.90;;;;;;4977697;28;19960;-61
2022/04/29 06:06:59;;;;;;;;;;;7.20;99.90;;;;;;4982850;28;19964;-61
2022/04/29 06:09:25;;;;;;;;;;;7.20;99.90;;;;;;4983799;28;19917;-61
2022/04/29 06:11:51;;;;;;;;;;;7.10;99.90;;;;;;4983803;28;19913;-61
2022/04/29 06:14:16;;;;;;;;;;;7.20;99.90;;;;;;4980121;28;19914;-61
2022/04/29 06:16:43;;;;;;;;;;;7.10;99.90;;;;;;4984315;28;19918;-61
2022/04/29 06:19:08;;;;;;;;;;;7.50;99.90;;;;;;4979446;28;20008;-62
2022/04/29 06:21:34;;;;;;;;;;;7.40;99.90;;;;;;4984760;28;19997;-62
2022/04/29 06:23:59;;;;;;;;;;;7.50;99.90;;;;;;4981958;28;20395;-61
2022/04/29 06:26:25;;;;;;;;;;;7.50;99.90;;;;;;5010978;28;19913;-61
2022/04/29 06:28:51;;;;;;;;;;;7.60;99.90;;;;;;4979126;28;20344;-61
2022/04/29 06:31:16;;;;;;;;;;;7.40;99.90;;;;;;5015630;28;19976;-61
2022/04/29 06:33:42;;;;;;;;;;;7.70;99.90;;;;;;5015763;28;19910;-61
2022/04/29 06:36:07;;;;;;;;;;;7.80;99.90;;;;;;4981754;28;20373;-61
2022/04/29 06:38:33;;;;;;;;;;;8.10;99.90;;;;;;4986753;28;20024;-61
2022/04/29 06:40:58;;;;;;;;;;;8.40;99.90;;;;;;4984097;28;20577;-61
2022/04/29 06:43:24;;;;;;;;;;;8.40;99.90;;;;;;4985101;28;19917;-61
2022/04/29 06:45:49;;;;;;;;;;;8.80;99.90;;;;;;4984784;28;19914;-61
2022/04/29 06:48:15;;;;;;;;;;;9.10;99.90;;;;;;4982324;28;19952;-61
2022/04/29 06:50:41;;;;;;;;;;;9.20;99.90;;;;;;4982551;28;20383;-61
2022/04/29 06:53:06;;;;;;;;;;;8.60;99.90;;;;;;4982209;28;20480;-61
2022/04/29 06:55:32;;;;;;;;;;;8.60;99.90;;;;;;4983327;28;20361;-60
2022/04/29 06:57:58;;;;;;;;;;;8.80;99.90;;;;;;4980817;28;19964;-61
2022/04/29 07:00:23;;;;;;;;;;;8.90;99.90;;;;;;4988578;28;19918;-61
2022/04/29 07:02:49;;;;;;;;;;;9.60;99.90;;;;;;4983922;28;19959;-61
2022/04/29 07:05:15;;;;;;;;;;;10.20;99.90;;;;;;4994010;28;19999;-61
2022/04/29 07:07:41;;;;;;;;;;;10.40;99.90;;;;;;4980024;28;19920;-61
2022/04/29 07:10:07;;;;;;;;;;;10.80;99.90;;;;;;4980304;28;19917;-61
2022/04/29 07:12:39;;;;;;;;;;;10.60;99.90;;;;;;4980095;28;19925;-61
2022/04/29 07:15:05;;;;;;;;;;;10.30;99.90;;;;;;4986647;28;20052;-61
2022/04/29 07:17:31;;;;;;;;;;;10.60;99.90;;;;;;4984299;28;19996;-61
2022/04/29 07:19:56;;;;;;;;;;;11.00;99.90;;;;;;4984973;28;19920;-62
2022/04/29 07:22:24;;;;;;;;;;;10.90;99.90;;;;;;4986132;28;19914;-62
2022/04/29 07:24:50;;;;;;;;;;;11.30;99.90;;;;;;4985429;28;20381;-61
2022/04/29 07:27:16;;;;;;;;;;;11.50;99.90;;;;;;4985717;28;20023;-61
2022/04/29 07:29:42;;;;;;;;;;;11.80;99.90;;;;;;4983628;28;19913;-61
2022/04/29 07:32:07;;;;;;;;;;;11.30;99.90;;;;;;4982314;28;20032;-61
2022/04/29 07:42:50;;;;;;;;;;;11.00;99.90;;;;;;4984934;28;20008;-61
2022/04/29 07:45:15;;;;;;;;;;;10.20;99.90;;;;;;4981011;28;19922;-61
2022/04/29 07:47:41;;;;;;;;;;;10.50;99.90;;;;;;4989207;28;19948;-61
2022/04/29 07:50:06;;;;;;;;;;;10.90;99.90;;;;;;4986535;28;19936;-61
2022/04/29 07:52:33;;;;;;;;;;;11.10;99.90;;;;;;4988692;28;19909;-61
2022/04/29 07:54:59;;;;;;;;;;;10.90;99.90;;;;;;4988053;28;19964;-61
2022/04/29 07:57:25;;;;;;;;;;;10.40;99.90;;;;;;4985937;28;20321;-61
2022/04/29 07:59:50;;;;;;;;;;;11.00;99.90;;;;;;5014077;28;19913;-61
2022/04/29 08:02:16;;;;;;;;;;;11.00;99.90;;;;;;4988166;28;20380;-61
2022/04/29 08:04:41;;;;;;;;;;;11.70;99.90;;;;;;4986517;28;20625;-61
2022/04/29 08:07:07;;;;;;;;;;;11.70;99.90;;;;;;4988640;28;19914;-61
2022/04/29 08:09:32;;;;;;;;;;;11.40;99.90;;;;;;4999404;28;19987;-61
2022/04/29 08:11:58;;;;;;;;;;;12.10;99.90;;;;;;4981418;28;19918;-61
2022/04/29 08:14:23;;;;;;;;;;;12.60;99.90;;;;;;4987583;28;19917;-61
2022/04/29 08:16:49;;;;;;;;;;;12.60;99.90;;;;;;4985625;28;20285;-61
2022/04/29 08:19:15;;;;;;;;;;;13.50;99.90;;;;;;4988811;28;19910;-61
2022/04/29 08:21:40;;;;;;;;;;;13.70;99.90;;;;;;4988706;28;19923;-61
2022/04/29 08:24:06;;;;;;;;;;;14.40;99.90;;;;;;4989320;28;19921;-61
2022/04/29 08:26:31;;;;;;;;;;;14.20;99.90;;;;;;5019844;28;19941;-61
2022/04/29 08:28:58;;;;;;;;;;;13.80;99.90;;;;;;4984212;28;20093;-61
2022/04/29 08:31:24;;;;;;;;;;;14.30;99.90;;;;;;4987077;28;19945;-61
2022/04/29 08:33:50;;;;;;;;;;;14.30;99.90;;;;;;4984423;28;20409;-61
2022/04/29 08:36:15;;;;;;;;;;;15.30;99.90;;;;;;4987212;28;19949;-61
2022/04/29 08:38:42;;;;;;;;;;;13.60;99.90;;;;;;4983190;28;20294;-61
2022/04/29 08:41:08;;;;;;;;;;;14.60;99.90;;;;;;4986126;28;19960;-61
2022/04/29 08:43:34;;;;;;;;;;;13.90;99.90;;;;;;4979489;28;19964;-61
2022/04/29 08:46:00;;;;;;;;;;;13.80;99.90;;;;;;4983881;28;19921;-61
2022/04/29 08:48:28;;;;;;;;;;;14.90;99.90;;;;;;4985845;28;19929;-61
2022/04/29 08:50:55;;;;;;;;;;;15.10;99.90;;;;;;4985486;28;19924;-61
2022/04/29 08:53:20;;;;;;;;;;;15.70;99.90;;;;;;4989555;28;19921;-61
2022/04/29 08:58:38;;;;;;;;;;;14.90;99.90;;;;;;4982284;28;19921;-61
2022/04/29 09:01:05;;;;;;;;;;;14.40;99.90;;;;;;5015699;28;19918;-61
2022/04/29 09:03:31;;;;;;;;;;;14.40;99.90;;;;;;4985903;28;19996;-61
2022/04/29 09:05:56;;;;;;;;;;;13.90;99.90;;;;;;4986020;28;20016;-61
2022/04/29 09:08:23;;;;;;;;;;;14.10;99.90;;;;;;4985932;28;19925;-62
2022/04/29 09:10:50;;;;;;;;;;;14.20;99.90;;;;;;5000194;28;19956;-61
2022/04/29 09:13:16;;;;;;;;;;;13.80;99.90;;;;;;4982933;28;20365;-61
2022/04/29 09:15:46;;;;;;;;;;;13.60;99.90;;;;;;4988575;28;20004;-61
2022/04/29 09:18:11;;;;;;;;;;;14.40;99.90;;;;;;4987998;28;19910;-61
2022/04/29 09:20:39;;;;;;;;;;;13.20;99.90;;;;;;4990353;28;20091;-61
2022/04/29 09:23:04;;;;;;;;;;;13.70;99.90;;;;;;4984713;28;19909;-61
2022/04/29 09:25:34;;;;;;;;;;;14.30;99.90;;;;;;4989762;28;20614;-61
2022/04/29 09:28:01;;;;;;;;;;;14.00;99.90;;;;;;4993100;28;19918;-61
2022/04/29 09:30:40;;;;;;;;;;;13.70;99.90;;;;;;4986825;28;19921;-61
2022/04/29 09:33:26;;;;;;;;;;;14.00;99.90;;;;;;4987151;28;19917;-61
2022/04/29 09:35:52;;;;;;;;;;;13.80;99.90;;;;;;4984946;28;19914;-61
2022/04/29 09:41:03;;;;;;;;;;;14.10;99.90;;;;;;4982865;28;19920;-61
2022/04/29 09:43:38;;;;;;;;;;;14.10;99.90;;;;;;4987126;28;19913;-62
2022/04/29 09:46:14;;;;;;;;;;;14.10;99.90;;;;;;5011419;28;19918;-61
2022/04/29 09:49:09;;;;;;;;;;;14.20;99.90;;;;;;4988517;28;19916;-61
2022/04/29 09:51:38;;;;;;;;;;;14.80;99.90;;;;;;4985909;28;19914;-61
2022/04/29 09:54:08;;;;;;;;;;;14.50;99.90;;;;;;4985495;28;20016;-61
2022/04/29 09:56:34;;;;;;;;;;;15.10;99.90;;;;;;4989507;28;19916;-61
2022/04/29 09:58:59;;;;;;;;;;;15.70;99.90;;;;;;4985851;28;20349;-61
2022/04/29 10:01:25;;;;;;;;;;;15.00;99.90;;;;;;4987914;28;19953;-61
2022/04/29 10:03:51;;;;;;;;;;;15.50;99.90;;;;;;4986538;28;19984;-65
2022/04/29 10:06:18;;;;;;;;;;;15.60;99.90;;;;;;4981059;28;20360;-61
2022/04/29 10:08:44;;;;;;;;;;;15.10;99.90;;;;;;4985147;28;20005;-61
2022/04/29 10:11:09;;;;;;;;;;;14.90;99.90;;;;;;4982684;28;19996;-61
2022/04/29 10:13:35;;;;;;;;;;;14.80;99.90;;;;;;4983335;28;20032;-61
2022/04/29 10:16:02;;;;;;;;;;;15.10;99.90;;;;;;4981811;28;19913;-61
2022/04/29 10:21:18;;;;;;;;;;;14.90;99.90;;;;;;4983910;28;20419;-61
2022/04/29 10:23:50;;;;;;;;;;;14.10;99.90;;;;;;4986464;28;20000;-60
2022/04/29 10:26:25;;;;;;;;;;;14.00;99.90;;;;;;4985955;28;19910;-60
2022/04/29 10:28:51;;;;;;;;;;;13.90;99.90;;;;;;5012822;28;20336;-61
2022/04/29 10:31:17;;;;;;;;;;;14.90;99.90;;;;;;4983803;28;19976;-61
2022/04/29 10:33:42;;;;;;;;;;;15.00;99.90;;;;;;4984019;28;19916;-61
2022/04/29 10:36:09;;;;;;;;;;;14.60;99.90;;;;;;4979586;28;20369;-61
2022/04/29 10:38:37;;;;;;;;;;;14.70;99.90;;;;;;4984659;28;20309;-61
2022/04/29 10:41:10;;;;;;;;;;;15.10;99.90;;;;;;4988240;28;19916;-61
2022/04/29 10:43:38;;;;;;;;;;;14.80;99.90;;;;;;4985542;28;19909;-61
2022/04/29 10:46:04;;;;;;;;;;;15.00;99.90;;;;;;4986013;28;19956;-61
2022/04/29 10:48:30;;;;;;;;;;;15.00;99.90;;;;;;4987885;28;20733;-61
2022/04/29 10:50:55;;;;;;;;;;;14.40;99.90;;;;;;4985016;28;19912;-61
2022/04/29 10:53:24;;;;;;;;;;;14.60;99.90;;;;;;4981630;28;19906;-61
2022/04/29 10:55:50;;;;;;;;;;;15.30;99.90;;;;;;4983455;28;20392;-61
2022/04/29 10:58:19;;;;;;;;;;;15.30;99.90;;;;;;4981408;28;19917;-61
2022/04/29 11:01:20;;;;;;;;;;;14.90;99.90;;;;;;4983814;28;20301;-61
2022/04/29 11:03:47;;;;;;;;;;;15.80;99.90;;;;;;4983853;28;19918;-61
2022/04/29 11:06:13;;;;;;;;;;;15.30;99.90;;;;;;5016079;28;19924;-61
2022/04/29 11:08:39;;;;;;;;;;;15.80;99.90;;;;;;4982875;28;20024;-61
2022/04/29 11:11:05;;;;;;;;;;;15.90;99.90;;;;;;4985836;28;20360;-61
2022/04/29 11:13:34;;;;;;;;;;;15.90;99.90;;;;;;4984494;28;19979;-60
2022/04/29 11:16:15;;;;;;;;;;;15.90;99.90;;;;;;4984438;28;19914;-60
2022/04/29 11:18:43;;;;;;;;;;;16.80;99.90;;;;;;4984837;28;19906;-60
2022/04/29 11:26:42;;;;;;;;;;;18.20;99.90;;;;;;4985642;28;20444;-61
2022/04/29 11:29:11;;;;;;;;;;;17.90;99.90;;;;;;4983670;28;19949;-61
2022/04/29 11:31:36;;;;;;;;;;;17.20;99.90;;;;;;4984875;28;19997;-61
2022/04/29 11:34:06;;;;;;;;;;;16.70;99.90;;;;;;4984622;28;20009;-61
2022/04/29 11:36:31;;;;;;;;;;;16.70;99.90;;;;;;4985648;28;19906;-61
2022/04/29 11:38:57;;;;;;;;;;;16.60;99.90;;;;;;4986483;28;19920;-61
2022/04/29 11:41:27;;;;;;;;;;;17.30;99.90;;;;;;4991226;28;19914;-61
2022/04/29 11:43:53;;;;;;;;;;;17.50;99.90;;;;;;4981599;28;20099;-61
2022/04/29 11:46:19;;;;;;;;;;;17.60;99.90;;;;;;4983392;28;20072;-61
2022/04/29 11:48:51;;;;;;;;;;;17.20;99.80;;;;;;4992285;28;20004;-61
2022/04/29 11:51:16;;;;;;;;;;;17.20;99.90;;;;;;4982546;28;20023;-61
2022/04/29 11:53:55;;;;;;;;;;;17.00;99.90;;;;;;4994662;28;20008;-61
2022/04/29 11:56:22;;;;;;;;;;;17.40;99.00;;;;;;4982540;28;20368;-61
2022/04/29 11:58:47;;;;;;;;;;;18.50;98.00;;;;;;4983488;28;19920;-61
2022/04/29 12:01:15;;;;;;;;;;;17.30;99.20;;;;;;4984004;28;20476;-61
2022/04/29 12:03:49;;;;;;;;;;;17.40;98.50;;;;;;4981208;28;19909;-61
2022/04/29 12:06:16;;;;;;;;;;;17.90;97.50;;;;;;4979863;28;19918;-61
2022/04/29 12:08:42;;;;;;;;;;;17.90;98.60;;;;;;4976131;28;20024;-61
2022/04/29 12:11:08;;;;;;;;;;;17.50;98.70;;;;;;4980046;28;20032;-61
2022/04/29 12:13:36;;;;;;;;;;;17.50;99.40;;;;;;4983280;28;19920;-61
2022/04/29 12:16:04;;;;;;;;;;;18.00;98.70;;;;;;5009598;28;19945;-61
2022/04/29 12:18:43;;;;;;;;;;;18.00;98.60;;;;;;4982904;28;19918;-61
2022/04/29 12:21:09;;;;;;;;;;;16.60;99.50;;;;;;4977816;28;19925;-61
2022/04/29 12:23:35;;;;;;;;;;;17.00;99.90;;;;;;4986528;28;19910;-61
2022/04/29 12:26:01;;;;;;;;;;;16.70;99.00;;;;;;4977292;28;19928;-61
2022/04/29 12:28:28;;;;;;;;;;;16.20;99.10;;;;;;4980449;28;20534;-61
2022/04/29 12:36:25;;;;;;;;;;;16.20;99.70;;;;;;4984072;28;20024;-61
2022/04/29 12:38:51;;;;;;;;;;;15.70;99.90;;;;;;4988745;28;19906;-61
2022/04/29 12:41:33;;;;;;;;;;;16.30;99.70;;;;;;4989626;28;19909;-61
2022/04/29 12:46:56;;;;;;;;;;;16.00;99.90;;;;;;4983823;28;20427;-61
2022/04/29 12:49:22;;;;;;;;;;;17.00;99.90;;;;;;5020336;28;19913;-61
2022/04/29 12:51:57;;;;;;;;;;;17.70;99.40;;;;;;4990433;28;19918;-61
2022/04/29 12:54:25;;;;;;;;;;;18.20;97.70;;;;;;4989606;28;19909;-61
2022/04/29 12:56:53;;;;;;;;;;;17.50;97.30;;;;;;4991953;28;19917;-61
2022/04/29 12:59:22;;;;;;;;;;;16.70;98.40;;;;;;5020617;28;19921;-61
2022/04/29 13:01:47;;;;;;;;;;;16.30;98.80;;;;;;5020419;28;19920;-61
2022/04/29 13:04:13;;;;;;;;;;;16.20;99.60;;;;;;5001784;28;19917;-61
2022/04/29 13:06:38;;;;;;;;;;;16.10;99.90;;;;;;4985151;28;20219;-61
2022/04/29 13:09:04;;;;;;;;;;;16.20;99.90;;;;;;4985588;28;20005;-61
2022/04/29 13:11:32;;;;;;;;;;;16.50;99.90;;;;;;4985823;28;19913;-61
2022/04/29 13:13:58;;;;;;;;;;;17.60;98.70;;;;;;4984695;28;20000;-61
2022/04/29 13:16:24;;;;;;;;;;;16.60;99.20;;;;;;4983110;28;20012;-61
2022/04/29 13:18:49;;;;;;;;;;;17.10;98.40;;;;;;4987210;28;19964;-61
2022/04/29 13:21:15;;;;;;;;;;;16.60;98.40;;;;;;4987184;28;19984;-61
2022/04/29 13:23:43;;;;;;;;;;;16.30;99.40;;;;;;4993828;28;20008;-61
2022/04/29 13:26:09;;;;;;;;;;;17.00;99.60;;;;;;4983615;28;19972;-61
2022/04/29 13:28:35;;;;;;;;;;;16.30;99.00;;;;;;4982419;28;19906;-61
2022/04/29 13:31:01;;;;;;;;;;;16.40;99.90;;;;;;4982820;28;20419;-62
2022/04/29 13:33:27;;;;;;;;;;;17.00;99.00;;;;;;4982847;28;19949;-61
2022/04/29 13:35:53;;;;;;;;;;;17.80;97.30;;;;;;4982211;28;19960;-61
2022/04/29 13:38:19;;;;;;;;;;;17.40;97.80;;;;;;4980333;28;20397;-61
2022/04/29 13:40:44;;;;;;;;;;;17.50;97.80;;;;;;4986252;28;19910;-61
2022/04/29 13:43:12;;;;;;;;;;;16.60;99.10;;;;;;4983489;28;19909;-61
2022/04/29 13:45:38;;;;;;;;;;;16.40;99.10;;;;;;4984986;28;19925;-62
2022/04/29 13:48:04;;;;;;;;;;;16.70;98.80;;;;;;4984368;28;20004;-61
2022/04/29 13:50:29;;;;;;;;;;;16.60;99.20;;;;;;4984623;28;20362;-61
2022/04/29 13:53:14;;;;;;;;;;;16.40;98.90;;;;;;4999726;28;20420;-61
2022/04/29 13:55:47;;;;;;;;;;;16.80;99.30;;;;;;4985707;28;20004;-61
2022/04/29 13:58:13;;;;;;;;;;;16.00;99.00;;;;;;4982625;28;20742;-61
2022/04/29 14:00:42;;;;;;;;;;;16.40;99.90;;;;;;4986700;28;19927;-61
2022/04/29 14:03:08;;;;;;;;;;;16.90;99.40;;;;;;4987034;28;19913;-61
2022/04/29 14:05:34;;;;;;;;;;;16.20;98.50;;;;;;4985329;28;20361;-61
2022/04/29 14:07:59;;;;;;;;;;;15.80;99.50;;;;;;4983008;28;19921;-61
2022/04/29 14:10:25;;;;;;;;;;;16.00;99.30;;;;;;4984432;28;19914;-61
2022/04/29 14:12:50;;;;;;;;;;;16.20;98.60;;;;;;4985184;28;19914;-62
2022/04/29 14:15:16;;;;;;;;;;;15.80;98.80;;;;;;4982323;28;19976;-62
2022/04/29 14:17:41;;;;;;;;;;;16.10;99.00;;;;;;4986222;28;19983;-62
2022/04/29 14:20:08;;;;;;;;;;;16.30;99.20;;;;;;5017455;28;19914;-62
2022/04/29 14:22:34;;;;;;;;;;;16.30;98.70;;;;;;4983637;28;19917;-61
2022/04/29 14:25:01;;;;;;;;;;;16.10;97.80;;;;;;4985611;28;20293;-61
2022/04/29 14:27:26;;;;;;;;;;;16.10;99.00;;;;;;4984674;28;20374;-61
2022/04/29 14:29:52;;;;;;;;;;;16.60;98.90;;;;;;4982993;28;19921;-61
2022/04/29 14:32:17;;;;;;;;;;;16.30;99.50;;;;;;4984212;28;20130;-61
2022/04/29 14:34:43;;;;;;;;;;;16.20;98.70;;;;;;4984480;28;19910;-61
2022/04/29 14:37:09;;;;;;;;;;;16.00;97.60;;;;;;4983086;28;20651;-61
2022/04/29 14:39:35;;;;;;;;;;;16.10;98.40;;;;;;4984424;28;19914;-61
2022/04/29 14:42:01;;;;;;;;;;;15.70;97.90;;;;;;4987023;28;19910;-61
2022/04/29 14:44:27;;;;;;;;;;;15.30;99.00;;;;;;4983636;28;19945;-61
2022/04/29 14:46:53;;;;;;;;;;;15.80;97.80;;;;;;4981375;28;19949;-61
2022/04/29 14:49:19;;;;;;;;;;;15.30;99.30;;;;;;4984001;28;19960;-61
2022/04/29 14:51:45;;;;;;;;;;;15.40;98.90;;;;;;4985399;28;20441;-61
2022/04/29 14:54:12;;;;;;;;;;;15.20;99.90;;;;;;4985788;28;19910;-61
2022/04/29 14:56:38;;;;;;;;;;;15.30;99.90;;;;;;4985857;28;20322;-61